Decoded Metar for KASD (SLIDELL 22 in LA, USA) (IATA:ASD) | Meteo·Mobile Aviation Weather
aviador You're here:

KASD Decoded Metar

SLIDELL 22 in LA, USA
Report Time2019-02-16 17:17:00
UTC Time2019-02-16 17:47:31
Flight Rules vfr VFR
Wind210° at 06 kt
W.Decomp.*RWY 18: 5.3 kt HW 2.8 kt RCW
W.Rank210° ranks 13
Current wind is above 210° avg. (5.5)
Visibility9999 m
Phenomena:N/A
Clouds:Scattered 011 Hf
Overcast 040 Hf
Expected CloudBase > 1,200 ft AGL from Temp-Dew spread
Ceiling4,000 ft
Temp21°C (ISA +6)
Dew Point18°C (83% RH)
QNH1010 hPa
Density Alt1,112 ft
Elevation30 ft
Report Wrong Elevation
Raw Report
KASD 161717Z AUTO 21006KT 9SM SCT011 OVC040 21/18 A2984 RMK AO2
T02110178=

Extra information for KASD:More info

Metar Taf Metar & Taf Last 4 Metars F.Rules Stats Wind Profile Meteogram Temp Stats Airport Information Weather charts Add Link Nearby VenuesMetar ALERT Operation Metar Decoded Social comments

AIRNAV info for KASD